Sunday, January 25, 2015
12:16 UTC
  |  Log In   |  Register Free
Airport Search:

Owosso Community Airport
(KRNP)

Owosso Community Airport Diagram
No Airport Diagram Available

FAA data valid effective January 08, 2015 - March 05, 2015 (unless otherwise noted).

 
 
 
 
 
 
 
 
 
 
 
 
 
 

Current Aviation Weather for Owosso Community Airport (KRNP)

The most recent METAR observation for KRNP was updated at: 1215
METAR Summary (Translated METAR)
KRNP
251155Z AUTO 03009KT 10SM BKN040 OVC049 M05/M08 A2984 RMK AO2 T10461076 10010 21046
K4M4
140000Z VRB05KT 25SM SKC 16/04
(13.4 nm NW from KRNP)
KFNT
251153Z 05012KT 10SM BKN021 OVC060 M03/M09 A2983 RMK AO2 SLP112 T10331089 10022 21033 53020
(17.4 nm SE from KRNP)
TAF Summary (Translated TAF)
KFNT
(17.4 nm SE from KRNP)
251120Z 2512/2612 01009KT P6SM BKN025 OVC040 FM251400 04012KT P6SM BKN020 FM252200 06010KT P6SM SCT020
  Airport Weather Conditions for KRNP

 Current Weather at RNP
24° F
Overcast
Northeast winds at 10.4 mph
RNP NOAA Radar

Pressure: 29.84 in
Humidity: 80%
Wind: Northeast at 10.4 MPH (9 KT)
Dew Point: 18.3°F
Visibility: 10.00 mi


Airport Weather Forecast for KRNP

Translated METAR and TAF for KRNP
Translated METAR for KRNP (1216 UTC 25 January 2015)
found at http://aviationweather.gov/adds/metars/
 
METAR text: KRNP 251155Z AUTO 03009KT 10SM BKN040 OVC049 M05/M08 A2984 RMK AO2 T10461076 10010 21046
Conditions at: KRNP (OWOSSO , MI, US) observed 1155 UTC 25 January 2015
Temperature: -4.6°C (24°F)
Dewpoint: -7.6°C (18°F) [RH = 79%]
Pressure (altimeter): 29.84 inches Hg (1010.6 mb)
Winds: from the NNE (30 degrees) at 10 MPH (9 knots; 4.7 m/s)
Visibility: 10 or more miles (16+ km)
Ceiling: 4000 feet AGL
Clouds: broken clouds at 4000 feet AGL
overcast cloud deck at 4900 feet AGL
Weather: automated observation with no human augmentation;
there may or may not be significant weather present at this time
Translated TAF for KRNP

There is no translated TAF available for this airport

Find All Airport Services Find A Hotel Find A Rental Car Find A Golf Course Find A Restaurant $100 Hamburger



FBO's on the Field
FBO Company Facility Photos Services Transportation Aviation Fuel Prices: Prices include tax
Catering Weather Repair Courtesy Rental Type 100LL JetA JetA+ MOGAS 8087
 
Owosso Community Airport

This FBO has not yet been rated
FS:Avfuel
Last Updated: Dec-22
Login to update fuel prices
SS:
Contact Owosso Community AirportMore FBO Information
 
Add another FBO Facility Photos Catering Weather Repair Courtesy Rental Type 100LL JetA JetA+ MOGAS 8087
Services Transportation Aviation Fuel Prices: Prices include tax


model-print
model-print
model-print
model-print